KTPF/TPF METAR and TAF weather

Enter ICAO airport designator
Station Type Date Time Source
KTPF METAR 2019/08/24 22:15 UTC NOAA

KTPF 242215Z AUTO 06004KT 10SM OVC100 34/25 A2988 RMK AO2


Station Type Date Time Source
KTPF Decoded METAR 2019/08/24 22:15 UTC NOAA

Station name not available
Aug 24, 2019 - 06:15 PM EDT / 2019.08.24 2215 UTC
Wind: from the ENE (060 degrees) at 5 MPH (4 KT):0
Visibility: 10 mile(s):0
Sky conditions: overcast
Temperature: 93 F (34 C)
Heat index: 106.7 F (41.5 C):1
Dew Point: 77 F (25 C)
Relative Humidity: 59%
Pressure (altimeter): 29.88 in. Hg (1011 hPa)
ob: KTPF 242215Z AUTO 06004KT 10SM OVC100 34/25 A2988 RMK AO2
cycle: 22

Station Type Date Time Source
KTPF TAF UTC NOAA

Error!

Example: see airport list